createdAt,value
2022-11-26T00:02:20.532Z,2.04
2022-11-26T00:04:51.547Z,2.07
2022-11-26T00:07:25.643Z,2.06
2022-11-26T00:09:56.919Z,2.07
2022-11-26T00:12:28.644Z,2.08
2022-11-26T00:14:58.898Z,2.08
2022-11-26T00:17:28.858Z,2.07
2022-11-26T00:19:58.927Z,2.08
2022-11-26T00:22:32.428Z,2.09
2022-11-26T00:25:02.379Z,2.10
2022-11-26T00:27:32.887Z,2.11
2022-11-26T00:30:05.968Z,2.11
2022-11-26T00:32:35.802Z,2.13
2022-11-26T00:35:06.830Z,2.14
2022-11-26T00:37:40.528Z,2.15
2022-11-26T00:40:16.239Z,2.16
2022-11-26T00:42:46.136Z,2.13
2022-11-26T00:45:21.867Z,2.15
2022-11-26T00:47:51.908Z,2.17
2022-11-26T00:50:23.384Z,2.20
2022-11-26T00:52:55.720Z,2.20
2022-11-26T00:55:34.086Z,2.21
2022-11-26T00:58:04.976Z,2.23
2022-11-26T01:00:35.928Z,2.21
2022-11-26T01:03:05.977Z,2.22
2022-11-26T01:05:36.782Z,2.22
2022-11-26T01:08:26.857Z,2.22
2022-11-26T01:11:01.809Z,2.23
2022-11-26T01:13:32.681Z,2.25
2022-11-26T01:16:07.727Z,2.28
2022-11-26T01:18:37.862Z,2.31
2022-11-26T01:21:09.627Z,2.34
2022-11-26T01:23:39.765Z,2.39
2022-11-26T01:26:16.626Z,2.42
2022-11-26T01:28:47.576Z,2.48
2022-11-26T01:31:20.053Z,2.50
2022-11-26T01:33:50.560Z,2.52
2022-11-26T01:36:27.186Z,2.54
2022-11-26T01:38:58.577Z,2.53
2022-11-26T01:41:47.297Z,2.50
2022-11-26T01:44:20.859Z,2.47
2022-11-26T01:46:52.020Z,2.48
2022-11-26T01:49:41.688Z,2.45
2022-11-26T01:52:21.699Z,2.45
2022-11-26T01:54:53.389Z,2.46
2022-11-26T01:57:26.298Z,2.46
2022-11-26T02:00:01.239Z,2.48
2022-11-26T02:02:31.596Z,2.50
2022-11-26T02:05:08.027Z,2.50
2022-11-26T02:07:38.623Z,2.52
2022-11-26T02:10:10.697Z,2.53
2022-11-26T02:12:41.818Z,2.55
2022-11-26T02:15:14.417Z,2.56
2022-11-26T02:17:47.040Z,2.59
2022-11-26T02:20:41.793Z,2.58
2022-11-26T02:23:42.357Z,2.60
2022-11-26T02:26:45.951Z,2.60
2022-11-26T02:29:29.119Z,2.61
2022-11-26T02:32:05.668Z,2.63
2022-11-26T02:34:44.295Z,2.66
2022-11-26T02:37:19.748Z,2.68
2022-11-26T02:39:49.498Z,2.69
2022-11-26T02:42:27.825Z,2.72
2022-11-26T02:45:02.537Z,2.72
2022-11-26T02:47:35.307Z,2.74
2022-11-26T02:50:10.784Z,2.75
2022-11-26T02:52:42.749Z,2.75
2022-11-26T02:55:15.697Z,2.75
2022-11-26T02:57:50.097Z,2.76
2022-11-26T03:00:21.520Z,2.76
2022-11-26T03:02:55.077Z,2.74
2022-11-26T03:05:26.139Z,2.73
2022-11-26T03:07:57.221Z,2.71
2022-11-26T03:10:29.210Z,2.67
2022-11-26T03:12:59.317Z,2.65
2022-11-26T03:15:29.065Z,2.62
2022-11-26T03:17:59.077Z,2.62
2022-11-26T03:20:29.071Z,2.62
2022-11-26T03:22:59.156Z,2.62
2022-11-26T03:25:29.117Z,2.59
2022-11-26T03:27:58.957Z,2.57
2022-11-26T03:30:29.327Z,2.55
2022-11-26T03:33:02.817Z,2.57
2022-11-26T03:35:32.978Z,2.57
2022-11-26T03:38:02.996Z,2.58
2022-11-26T03:40:33.104Z,2.56
2022-11-26T03:43:02.987Z,2.53
2022-11-26T03:45:32.796Z,2.55
2022-11-26T03:48:03.059Z,2.56
2022-11-26T03:50:33.258Z,2.55
2022-11-26T03:53:03.197Z,2.55
2022-11-26T03:55:33.101Z,2.55
2022-11-26T03:58:03.220Z,2.53
2022-11-26T04:00:36.138Z,2.53
2022-11-26T04:03:06.363Z,2.54
2022-11-26T04:05:36.502Z,2.56
2022-11-26T04:08:06.619Z,2.54
2022-11-26T04:10:36.798Z,2.45
2022-11-26T04:13:06.533Z,2.49
2022-11-26T04:15:36.487Z,2.51
2022-11-26T04:18:06.467Z,2.51
2022-11-26T04:20:36.308Z,2.48
2022-11-26T04:23:06.378Z,2.47
2022-11-26T04:25:36.587Z,2.46
2022-11-26T04:28:06.717Z,2.47
2022-11-26T04:30:36.956Z,2.48
2022-11-26T04:33:06.888Z,2.49
2022-11-26T04:35:37.601Z,2.47
2022-11-26T04:38:07.950Z,2.43
2022-11-26T04:40:38.158Z,2.46
2022-11-26T04:43:08.039Z,2.46
2022-11-26T04:45:37.981Z,2.44
2022-11-26T04:48:08.649Z,2.44
2022-11-26T04:50:38.498Z,2.43
2022-11-26T04:53:08.498Z,2.44
2022-11-26T04:55:38.550Z,2.42
2022-11-26T04:58:08.387Z,2.43
2022-11-26T05:00:40.095Z,2.44
2022-11-26T05:03:10.354Z,2.45
2022-11-26T05:05:40.802Z,2.46
2022-11-26T05:08:10.847Z,2.48
2022-11-26T05:10:40.831Z,2.50
2022-11-26T05:13:10.712Z,2.50
2022-11-26T05:15:40.938Z,2.45
2022-11-26T05:18:10.748Z,2.43
2022-11-26T05:20:40.600Z,2.41
2022-11-26T05:23:10.796Z,2.39
2022-11-26T05:25:40.926Z,2.36
2022-11-26T05:28:10.739Z,2.31
2022-11-26T05:30:40.709Z,2.29
2022-11-26T05:33:10.610Z,2.25
2022-11-26T05:35:40.388Z,2.25
2022-11-26T05:38:10.508Z,2.26
2022-11-26T05:40:40.879Z,2.27
2022-11-26T05:43:10.588Z,2.30
2022-11-26T05:45:40.699Z,2.33
2022-11-26T05:48:10.478Z,2.32
2022-11-26T05:50:40.730Z,2.35
2022-11-26T05:53:10.647Z,2.38
2022-11-26T05:55:40.462Z,2.37
2022-11-26T05:58:10.499Z,2.34
2022-11-26T06:00:40.228Z,2.36
2022-11-26T06:03:11.418Z,2.36
2022-11-26T06:05:41.440Z,2.36
2022-11-26T06:08:11.527Z,2.37
2022-11-26T06:10:42.958Z,2.38
2022-11-26T06:13:12.860Z,2.37
2022-11-26T06:15:44.609Z,2.38
2022-11-26T06:18:16.868Z,2.39
2022-11-26T06:20:47.298Z,2.39
2022-11-26T06:23:20.077Z,2.40
2022-11-26T06:25:49.987Z,2.41
2022-11-26T06:28:19.973Z,2.40
2022-11-26T06:30:49.880Z,2.41
2022-11-26T06:33:19.899Z,2.40
2022-11-26T06:35:49.819Z,2.42
2022-11-26T06:38:19.556Z,2.45
2022-11-26T06:40:50.341Z,2.47
2022-11-26T06:43:20.228Z,2.49
2022-11-26T06:45:50.654Z,2.49
2022-11-26T06:48:22.427Z,2.52
2022-11-26T06:50:52.698Z,2.53
2022-11-26T06:53:22.628Z,2.52
2022-11-26T06:55:52.628Z,2.52
2022-11-26T06:58:25.867Z,2.56
2022-11-26T07:00:55.139Z,2.61
2022-11-26T07:03:31.947Z,2.61
2022-11-26T07:06:03.178Z,2.72
2022-11-26T07:08:35.208Z,2.76
2022-11-26T07:11:05.723Z,2.82
2022-11-26T07:13:35.608Z,2.85
2022-11-26T07:16:06.913Z,2.90
2022-11-26T07:18:36.917Z,2.93
2022-11-26T07:21:08.728Z,2.94
2022-11-26T07:23:39.667Z,2.95
2022-11-26T07:26:11.984Z,2.99
2022-11-26T07:28:42.059Z,3.03
2022-11-26T07:31:16.827Z,3.07
2022-11-26T07:33:48.113Z,3.11
2022-11-26T07:36:20.948Z,3.16
2022-11-26T07:38:50.927Z,3.19
2022-11-26T07:41:22.497Z,3.24
2022-11-26T07:43:52.857Z,3.29
2022-11-26T07:46:25.084Z,3.43
2022-11-26T07:48:56.745Z,3.57
2022-11-26T07:51:28.609Z,3.84
2022-11-26T07:54:00.400Z,4.06
2022-11-26T07:56:30.405Z,4.07
2022-11-26T07:59:00.687Z,4.09
2022-11-26T08:01:32.007Z,4.13
2022-11-26T08:04:05.268Z,4.11
2022-11-26T08:06:35.808Z,4.09
2022-11-26T08:09:07.344Z,4.08
2022-11-26T08:11:37.487Z,4.05
2022-11-26T08:14:10.984Z,4.04
2022-11-26T08:16:41.407Z,4.06
2022-11-26T08:19:14.802Z,4.07
2022-11-26T08:21:45.078Z,4.08
2022-11-26T08:24:20.172Z,4.07
2022-11-26T08:26:50.336Z,4.11
2022-11-26T08:29:20.626Z,4.15
2022-11-26T08:31:50.650Z,4.15
2022-11-26T08:34:21.395Z,4.15
2022-11-26T08:36:51.982Z,4.16
2022-11-26T08:39:22.075Z,4.15
2022-11-26T08:41:52.829Z,4.14
2022-11-26T08:44:23.118Z,4.16
2022-11-26T08:46:53.066Z,4.14
2022-11-26T08:49:23.382Z,4.18
2022-11-26T08:51:55.358Z,4.20
2022-11-26T08:54:25.968Z,4.21
2022-11-26T08:56:56.447Z,4.22
2022-11-26T08:59:26.657Z,4.25
2022-11-26T09:01:58.139Z,4.31
2022-11-26T09:04:31.468Z,4.37
2022-11-26T09:07:01.818Z,4.41
2022-11-26T09:09:32.000Z,4.43
2022-11-26T09:12:05.957Z,4.47
2022-11-26T09:14:39.901Z,4.51
2022-11-26T09:17:11.976Z,4.55
2022-11-26T09:19:42.328Z,4.60
2022-11-26T09:22:12.313Z,4.65
2022-11-26T09:24:43.037Z,4.71
2022-11-26T09:27:13.779Z,4.77
2022-11-26T09:29:44.047Z,4.84
2022-11-26T09:32:33.930Z,4.89
2022-11-26T09:35:04.417Z,4.96
2022-11-26T09:37:34.387Z,4.99
2022-11-26T09:40:04.759Z,5.02
2022-11-26T09:42:49.095Z,5.06
2022-11-26T09:45:37.923Z,5.09
2022-11-26T09:48:16.268Z,5.09
2022-11-26T09:50:48.107Z,5.09
2022-11-26T09:53:22.504Z,5.12
2022-11-26T09:55:55.502Z,5.11
2022-11-26T09:58:33.487Z,5.13
2022-11-26T10:01:06.717Z,5.15
2022-11-26T10:03:39.431Z,5.16
2022-11-26T10:06:19.307Z,5.20
2022-11-26T10:09:26.039Z,5.24
2022-11-26T10:12:02.855Z,5.28
2022-11-26T10:14:46.517Z,5.34
2022-11-26T10:17:34.026Z,5.42
2022-11-26T10:20:23.013Z,5.42
2022-11-26T10:22:57.720Z,5.49
2022-11-26T10:25:39.187Z,5.55
2022-11-26T10:28:20.356Z,5.58
2022-11-26T10:31:02.509Z,5.62
2022-11-26T10:33:49.960Z,5.69
2022-11-26T10:36:26.618Z,5.74
2022-11-26T10:38:59.869Z,5.73
2022-11-26T10:41:36.510Z,5.76
2022-11-26T10:44:33.333Z,5.70
2022-11-26T10:47:25.449Z,5.72
2022-11-26T10:50:45.434Z,5.66
2022-11-26T10:53:25.140Z,5.63
2022-11-26T10:56:05.590Z,5.65
2022-11-26T10:58:48.083Z,5.71
2022-11-26T11:01:26.439Z,5.75
2022-11-26T11:04:08.811Z,5.74
2022-11-26T11:06:46.652Z,5.72
2022-11-26T11:09:36.640Z,5.77
2022-11-26T11:12:27.884Z,5.80
2022-11-26T11:15:30.923Z,5.84
2022-11-26T11:18:16.460Z,5.90
2022-11-26T11:20:57.437Z,5.96
2022-11-26T11:24:00.138Z,5.92
2022-11-26T11:26:25.247Z,5.96
2022-11-26T11:28:57.917Z,5.97
2022-11-26T11:31:29.362Z,5.98
2022-11-26T11:34:18.298Z,5.95
2022-11-26T11:37:00.661Z,6.01
2022-11-26T11:39:32.853Z,6.06
2022-11-26T11:42:17.597Z,6.05
2022-11-26T11:44:49.669Z,6.06
2022-11-26T11:47:31.697Z,6.03
2022-11-26T11:50:17.219Z,6.00
2022-11-26T11:52:58.223Z,5.97
2022-11-26T11:55:46.588Z,5.97
2022-11-26T11:58:32.669Z,5.94
2022-11-26T12:01:12.158Z,5.88
2022-11-26T12:04:19.759Z,5.81
2022-11-26T12:07:00.290Z,5.71
2022-11-26T12:09:37.259Z,5.70
2022-11-26T12:12:17.437Z,5.67
2022-11-26T12:14:52.379Z,5.61
2022-11-26T12:17:33.432Z,5.56
2022-11-26T12:20:15.134Z,5.52
2022-11-26T12:22:51.382Z,5.49
2022-11-26T12:25:33.530Z,5.45
2022-11-26T12:28:12.897Z,5.41
2022-11-26T12:30:52.228Z,5.39
2022-11-26T12:33:30.267Z,5.37
2022-11-26T12:36:05.728Z,5.35
2022-11-26T12:38:43.897Z,5.34
2022-11-26T12:41:19.574Z,5.30
2022-11-26T12:43:57.288Z,5.28
2022-11-26T12:46:35.518Z,5.23
2022-11-26T12:49:16.145Z,5.21
2022-11-26T12:51:50.620Z,5.22
2022-11-26T12:54:27.838Z,5.21
2022-11-26T12:57:03.480Z,5.18
2022-11-26T12:59:38.867Z,5.19
2022-11-26T13:02:21.342Z,5.19
2022-11-26T13:04:51.944Z,5.13
2022-11-26T13:07:36.066Z,5.10
2022-11-26T13:10:20.507Z,5.11
2022-11-26T13:12:58.769Z,5.04
2022-11-26T13:15:34.482Z,5.04
2022-11-26T13:18:13.948Z,5.04
2022-11-26T13:21:03.648Z,5.04
2022-11-26T13:23:50.367Z,5.03
2022-11-26T13:26:37.487Z,5.00
2022-11-26T13:29:32.926Z,5.00
2022-11-26T13:32:35.986Z,4.96
2022-11-26T13:35:24.138Z,4.96
2022-11-26T13:38:10.237Z,4.95
2022-11-26T13:41:08.382Z,4.94
2022-11-26T13:44:20.818Z,4.91
2022-11-26T13:46:56.517Z,4.90
2022-11-26T13:49:34.418Z,4.90
2022-11-26T13:52:10.908Z,4.90
2022-11-26T13:54:45.774Z,4.89
2022-11-26T13:57:19.306Z,4.89
2022-11-26T13:59:51.906Z,4.91
2022-11-26T14:02:42.244Z,4.92
2022-11-26T14:05:14.909Z,4.93
2022-11-26T14:07:46.393Z,4.91
2022-11-26T14:10:41.897Z,4.90
2022-11-26T14:13:19.337Z,4.88
2022-11-26T14:16:01.348Z,4.87
2022-11-26T14:18:59.469Z,4.85
2022-11-26T14:21:30.776Z,4.81
2022-11-26T14:24:01.937Z,4.81
2022-11-26T14:26:36.975Z,4.81
2022-11-26T14:29:15.126Z,4.79
2022-11-26T14:31:51.368Z,4.77
2022-11-26T14:34:30.235Z,4.74
2022-11-26T14:37:01.654Z,4.73
2022-11-26T14:39:32.617Z,4.72
2022-11-26T14:42:06.378Z,4.72
2022-11-26T14:44:37.072Z,4.71
2022-11-26T14:47:17.074Z,4.71
2022-11-26T14:49:54.099Z,4.71
2022-11-26T14:52:27.811Z,4.70
2022-11-26T14:55:00.017Z,4.71
2022-11-26T14:57:39.166Z,4.71
2022-11-26T15:00:23.821Z,4.74
2022-11-26T15:02:54.849Z,4.74
2022-11-26T15:05:26.695Z,4.74
2022-11-26T15:08:01.490Z,4.74
2022-11-26T15:10:41.267Z,4.74
2022-11-26T15:13:17.017Z,4.74
2022-11-26T15:15:53.907Z,4.74
2022-11-26T15:18:29.258Z,4.75
2022-11-26T15:21:01.457Z,4.74
2022-11-26T15:23:39.418Z,4.74
2022-11-26T15:26:18.177Z,4.75
2022-11-26T15:28:49.228Z,4.76
2022-11-26T15:31:19.709Z,4.76
2022-11-26T15:33:51.147Z,4.75
2022-11-26T15:36:21.720Z,4.76
2022-11-26T15:39:07.746Z,4.76
2022-11-26T15:41:42.854Z,4.74
2022-11-26T15:44:23.595Z,4.75
2022-11-26T15:46:56.148Z,4.74
2022-11-26T15:49:29.389Z,4.73
2022-11-26T15:52:04.240Z,4.72
2022-11-26T15:55:04.683Z,4.72
2022-11-26T15:57:35.726Z,4.67
2022-11-26T16:00:06.609Z,4.65
2022-11-26T16:02:40.665Z,4.60
2022-11-26T16:05:28.337Z,4.64
2022-11-26T16:08:02.483Z,4.63
2022-11-26T16:10:35.631Z,4.61
2022-11-26T16:13:22.597Z,4.58
2022-11-26T16:16:01.217Z,4.57
2022-11-26T16:18:37.177Z,4.54
2022-11-26T16:21:16.160Z,4.55
2022-11-26T16:23:56.658Z,4.52
2022-11-26T16:26:27.874Z,4.46
2022-11-26T16:29:05.413Z,4.46
2022-11-26T16:31:44.744Z,4.41
2022-11-26T16:34:30.517Z,4.41
2022-11-26T16:37:23.833Z,4.40
2022-11-26T16:40:02.741Z,4.38
2022-11-26T16:42:34.337Z,4.35
2022-11-26T16:45:04.877Z,4.36
2022-11-26T16:47:39.305Z,4.34
2022-11-26T16:50:21.257Z,4.36
2022-11-26T16:52:51.727Z,4.34
2022-11-26T16:55:23.047Z,4.35
2022-11-26T16:57:56.763Z,4.36
2022-11-26T17:00:27.937Z,4.35
2022-11-26T17:02:58.404Z,4.32
2022-11-26T17:05:28.377Z,4.31
2022-11-26T17:08:02.041Z,4.30
2022-11-26T17:10:30.857Z,4.25
2022-11-26T17:13:00.878Z,4.17
2022-11-26T17:15:30.958Z,4.13
2022-11-26T17:18:19.867Z,4.12
2022-11-26T17:20:53.413Z,4.10
2022-11-26T17:23:29.091Z,4.08
2022-11-26T17:26:00.764Z,4.05
2022-11-26T17:28:30.857Z,4.05
2022-11-26T17:31:01.027Z,4.05
2022-11-26T17:33:31.097Z,4.07
2022-11-26T17:36:01.553Z,4.06
2022-11-26T17:38:32.792Z,4.07
2022-11-26T17:41:03.438Z,4.04
2022-11-26T17:43:35.997Z,4.04
2022-11-26T17:46:10.408Z,4.01
2022-11-26T17:48:41.110Z,4.00
2022-11-26T17:51:14.157Z,3.99
2022-11-26T17:53:44.897Z,3.98
2022-11-26T17:56:19.169Z,3.98
2022-11-26T17:58:50.169Z,3.97
2022-11-26T18:01:20.719Z,3.94
2022-11-26T18:03:52.161Z,3.93
2022-11-26T18:06:34.436Z,3.92
2022-11-26T18:09:04.666Z,3.92
2022-11-26T18:11:47.227Z,3.92
2022-11-26T18:14:17.930Z,3.89
2022-11-26T18:16:48.237Z,3.88
2022-11-26T18:19:19.757Z,3.85
2022-11-26T18:21:52.309Z,3.81
2022-11-26T18:24:22.857Z,3.80
2022-11-26T18:26:56.039Z,3.77
2022-11-26T18:29:27.421Z,3.78
2022-11-26T18:31:57.577Z,3.76
2022-11-26T18:34:30.217Z,3.73
2022-11-26T18:37:01.940Z,3.72
2022-11-26T18:39:34.836Z,3.70
2022-11-26T18:44:59.172Z,3.65
2022-11-26T18:47:29.097Z,3.64
2022-11-26T18:49:59.303Z,3.58
2022-11-26T18:52:31.300Z,3.57
2022-11-26T18:55:04.498Z,3.55
2022-11-26T18:57:34.055Z,3.49
2022-11-26T19:00:06.608Z,3.40
2022-11-26T19:02:38.339Z,3.40
2022-11-26T19:05:12.319Z,3.37
2022-11-26T19:07:45.369Z,3.34
2022-11-26T19:10:17.338Z,3.30
2022-11-26T19:12:49.198Z,3.27
2022-11-26T19:15:20.309Z,3.21
2022-11-26T19:17:50.325Z,3.20
2022-11-26T19:20:22.306Z,3.15
2022-11-26T19:22:54.744Z,3.12
2022-11-26T19:25:27.929Z,3.05
2022-11-26T19:28:05.304Z,2.99
2022-11-26T19:30:38.266Z,2.92
2022-11-26T19:33:11.090Z,2.92
2022-11-26T19:35:43.528Z,2.91
2022-11-26T19:38:16.217Z,2.88
2022-11-26T19:40:50.381Z,2.90
2022-11-26T19:43:22.163Z,2.86
2022-11-26T19:46:01.122Z,2.88
2022-11-26T19:48:34.248Z,2.85
2022-11-26T19:51:03.707Z,2.80
2022-11-26T19:53:36.210Z,2.67
2022-11-26T19:56:13.897Z,2.69
2022-11-26T19:58:44.517Z,2.67
2022-11-26T20:01:16.691Z,2.65
2022-11-26T20:03:46.728Z,2.61
2022-11-26T20:06:18.975Z,2.56
2022-11-26T20:08:49.758Z,2.55
2022-11-26T20:11:23.748Z,2.53
2022-11-26T20:13:53.838Z,2.47
2022-11-26T20:16:27.095Z,2.49
2022-11-26T20:18:57.677Z,2.50
2022-11-26T20:21:31.598Z,2.49
2022-11-26T20:24:05.047Z,2.46
2022-11-26T20:26:37.447Z,2.46
2022-11-26T20:29:10.634Z,2.39
2022-11-26T20:31:44.407Z,2.30
2022-11-26T20:34:19.034Z,2.32
2022-11-26T20:36:51.917Z,2.32
2022-11-26T20:39:28.800Z,2.34
2022-11-26T20:41:59.258Z,2.33
2022-11-26T20:44:29.718Z,2.34
2022-11-26T20:46:59.578Z,2.32
2022-11-26T20:49:38.871Z,2.33
2022-11-26T20:52:13.697Z,2.32
2022-11-26T20:54:43.999Z,2.33
2022-11-26T20:57:17.625Z,2.30
2022-11-26T20:59:51.363Z,2.27
2022-11-26T21:02:22.048Z,2.26
2022-11-26T21:04:52.090Z,2.19
2022-11-26T21:07:22.217Z,2.17
2022-11-26T21:09:52.470Z,2.13
2022-11-26T21:12:22.408Z,2.10
2022-11-26T21:14:53.118Z,2.03
2022-11-26T21:17:23.215Z,1.98
2022-11-26T21:19:53.716Z,1.95
2022-11-26T21:22:24.339Z,1.91
2022-11-26T21:24:54.828Z,1.89
2022-11-26T21:27:25.590Z,1.89
2022-11-26T21:29:55.520Z,1.86
2022-11-26T21:32:28.699Z,1.85
2022-11-26T21:34:59.439Z,1.83
2022-11-26T21:37:29.938Z,1.79
2022-11-26T21:39:59.768Z,1.82
2022-11-26T21:42:29.861Z,1.84
2022-11-26T21:44:59.899Z,1.82
2022-11-26T21:47:30.058Z,1.78
2022-11-26T21:49:59.858Z,1.72
2022-11-26T21:52:30.257Z,1.71
2022-11-26T21:55:03.667Z,1.69
2022-11-26T21:57:35.096Z,1.71
2022-11-26T22:00:06.937Z,1.66
2022-11-26T22:02:37.574Z,1.66
2022-11-26T22:05:08.473Z,1.62
2022-11-26T22:07:38.507Z,1.64
2022-11-26T22:10:11.359Z,1.65
2022-11-26T22:12:41.037Z,1.64
2022-11-26T22:15:11.939Z,1.57
2022-11-26T22:17:41.819Z,1.56
2022-11-26T22:20:13.887Z,1.57
2022-11-26T22:22:43.835Z,1.57
2022-11-26T22:25:13.660Z,1.56
2022-11-26T22:27:43.607Z,1.55
2022-11-26T22:30:14.540Z,1.54
2022-11-26T22:32:44.581Z,1.53
2022-11-26T22:35:14.562Z,1.53
2022-11-26T22:37:44.691Z,1.53
2022-11-26T22:40:15.119Z,1.50
2022-11-26T22:42:45.119Z,1.50
2022-11-26T22:45:15.281Z,1.49
2022-11-26T22:47:48.550Z,1.49
2022-11-26T22:50:22.321Z,1.47
2022-11-26T22:52:52.244Z,1.47
2022-11-26T22:55:23.072Z,1.47
2022-11-26T22:57:53.002Z,1.47
2022-11-26T23:00:46.609Z,1.46
2022-11-26T23:03:17.256Z,1.48
2022-11-26T23:05:48.312Z,1.47
2022-11-26T23:08:18.383Z,1.49
2022-11-26T23:10:48.929Z,1.50
2022-11-26T23:13:18.804Z,1.52
2022-11-26T23:15:48.872Z,1.53
2022-11-26T23:18:18.841Z,1.56
2022-11-26T23:20:48.641Z,1.55
2022-11-26T23:23:19.010Z,1.54
2022-11-26T23:25:48.781Z,1.54
2022-11-26T23:28:18.909Z,1.52
2022-11-26T23:30:48.861Z,1.52
2022-11-26T23:33:18.845Z,1.50
2022-11-26T23:35:48.734Z,1.46
2022-11-26T23:38:18.702Z,1.45
2022-11-26T23:40:54.805Z,1.45
2022-11-26T23:43:25.885Z,1.40
2022-11-26T23:46:02.428Z,1.37
2022-11-26T23:48:33.051Z,1.35
2022-11-26T23:51:05.961Z,1.34
2022-11-26T23:53:37.063Z,1.33
2022-11-26T23:56:11.761Z,1.32
2022-11-26T23:58:41.661Z,1.32
